Flight Track Log - Related Links

Times and Time Zones

All times are in EDT time to prevent confusion due to time zone crossing. See the N830QS flight status page for this flight to view local times or setup timezone preferences in your user account.

Time Position Orientation Groundspeed Altitude Reporting Facility
EDT Latitude Longitude Course Direction KTS MPH feet Rate Location/Type
Fri 11:40:39 AM 40.8067 -77.8750 32° Northeast 343 395 4,900  Level New York Center
Fri 11:41:39 AM 40.8108 -77.8042 86° East 229 264 8,200 3,400 Climbing New York Center
Fri 11:42:39 AM 40.8614 -77.7242 50° Northeast 193 222 11,700 3,600 Climbing New York Center
Fri 11:43:39 AM 40.9161 -77.6447 48° Northeast 236 272 15,400 3,550 Climbing New York Center
Fri 11:44:00 AM 40.9240 -76.9530 50° Northeast  Level Estimated
Fri 11:44:39 AM 40.9683 -77.5675 48° Northeast 259 298 18,800  Level New York Center
Fri 11:45:00 AM 41.0201 -76.8730 32° Northeast  Level FlightAware Approximate
Fri 11:45:39 AM 41.0231 -77.4875 48° Northeast 278 320 21,000  Level New York Center
Fri 11:46:39 AM 41.0892 -77.3867 49° Northeast 314 361 21,000  Level New York Center
Fri 11:47:39 AM 41.1686 -77.2678 48° Northeast 371 427 21,000  Level New York Center
Fri 11:48:39 AM 41.2369 -77.1611 50° Northeast 377 434 21,000  Level New York Center
Fri 11:49:39 AM 41.3092 -77.0547 48° Northeast 388 447 21,000  Level New York Center
Fri 11:50:39 AM 41.3725 -76.9611 48° Northeast 388 447 21,000  Level New York Center
Fri 11:51:39 AM 41.4406 -76.8567 49° Northeast 388 447 21,000  Level New York Center
Fri 11:52:39 AM 41.5128 -76.7467 49° Northeast 388 447 21,000  Level New York Center
Fri 11:53:39 AM 41.5828 -76.6364 50° Northeast 388 447 21,000  Level New York Center
Fri 11:54:39 AM 41.6547 -76.5261 49° Northeast 388 447 21,000  Level New York Center
Fri 11:55:39 AM 41.7267 -76.4156 49° Northeast 388 447 21,000  Level New York Center
Fri 11:58:03 AM 41.8978 -76.1500 49° Northeast 402 463 21,000  Level Boston Center
Fri 11:59:00 AM 41.9681 -76.0397 49° Northeast 396 456 21,000  Level Boston Center
Fri 12:00:01 PM 42.0361 -75.9261 51° Northeast 396 456 21,000  Level Boston Center
Fri 12:01:02 PM 42.1147 -75.8072 48° Northeast 391 450 21,000  Level Boston Center
Fri 12:02:03 PM 42.1869 -75.6906 50° Northeast 391 450 21,000  Level Boston Center
Fri 12:03:03 PM 42.2569 -75.5764 50° Northeast 391 450 21,000 -407 Level Boston Center
Fri 12:04:01 PM 42.3058 -75.4667 59° Northeast 385 443 20,200 -1,068 Descending Boston Center
Fri 12:05:01 PM 42.2975 -75.3061 94° East 362 417 18,900 -1,200 Descending Boston Center
Fri 12:06:01 PM 42.2800 -75.1650 99° East 359 413 17,800 -942 Descending Boston Center
Fri 12:07:02 PM 42.2642 -75.0436 100° East 364 419 17,000 -397 Descending Boston Center
Fri 12:08:02 PM 42.2483 -74.9111 99° East 369 425 17,000  Level Boston Center
Fri 12:09:03 PM 42.2306 -74.7731 100° East 369 425 17,000  Level Boston Center
Fri 12:10:01 PM 42.2167 -74.6350 98° East 369 425 17,000  Level Boston Center
Fri 12:11:02 PM 42.1919 -74.5025 104° East 369 425 17,000  Level Boston Center
Fri 12:12:03 PM 42.1403 -74.3636 117° Southeast 374 430 17,000 -51 Level Boston Center
Fri 12:13:00 PM 42.0900 -74.2419 119° Southeast 381 438 16,900 -915 Descending Boston Center
Fri 12:14:01 PM 42.0356 -74.1311 123° Southeast 362 417 15,200 -1,525 Descending Boston Center
Fri 12:15:02 PM 41.9808 -74.0208 124° Southeast 356 410 13,800 -1,180 Descending Boston Center
Fri 12:16:03 PM 41.9281 -73.9106 123° Southeast 356 410 12,800 -1,059 Descending Boston Center
Fri 12:17:01 PM 41.8772 -73.8147 125° Southeast 338 389 11,700 -1,109 Descending Boston Center
Fri 12:18:02 PM 41.8264 -73.7133 124° Southeast 333 383 10,600 -1,091 Descending Boston Center
Fri 12:19:02 PM 41.7814 -73.6261 125° Southeast 308 354 9,500 -1,050 Descending Boston Center
Fri 12:20:02 PM 41.7153 -73.5747 150° Southeast 279 321 8,500 -942 Descending Boston Center
Fri 12:21:03 PM 41.6489 -73.5431 160° South 279 321 7,600 -1,154 Descending Boston Center
Fri 12:23:04 PM 41.5000 -73.4500 155° Southeast 254 292 5,000 -1,193 Descending New York TRACON
Fri 12:24:04 PM 41.4500 -73.4000 143° Southeast 252 290 4,000 -526 Descending New York TRACON
Fri 12:24:58 PM 41.4000 -73.3500 143° Southeast 249 287 4,000 -211 Level New York TRACON
Fri 12:25:58 PM 41.3167 -73.3500 180° South 256 295 3,600 -500 Descending New York TRACON
Fri 12:26:58 PM 41.2500 -73.3333 169° South 258 297 3,000 -300 Descending New York TRACON
Fri 12:27:58 PM 41.1833 -73.3500 191° South 262 302 3,000 -350 Level New York TRACON
Fri 12:28:58 PM 41.1167 -73.3500 180° South 244 281 2,300 -500 Descending New York TRACON
Fri 12:29:58 PM 41.0667 -73.3167 153° Southeast 198 228 2,000 -158 Descending New York TRACON
Fri 12:30:52 PM 41.0667 -73.2667 90° East 160 184 2,000 -100 Level New York TRACON
Fri 12:31:58 PM 41.1000 -73.2167 48° Northeast 151 174 1,800 -381 Descending New York TRACON
Fri 12:32:58 PM 41.1167 -73.2000 37° Northeast 108 124 1,200 -550 Descending New York TRACON
Fri 12:33:58 PM 41.1333 -73.1667 56° Northeast 106 122 700 -400 Descending New York TRACON
Fri 12:34:58 PM 41.1500 -73.1333 56° Northeast 105 121 400 -300 Descending New York TRACON

Login

Don't have an account? Register now (free) for customized features, flight alerts, and more!